Kresson, New Jersey
Current Conditions -  °F | °C
As of 12:54 AM on Monday 26 Jan 2015 (Local Time) from KVAY Reporting Station
Overcast Overcast  
Wind Chill: 20°   Ceiling: 2300
Heat Index: 29°   Visibility: 10mi
Dew Point: 25°   Wind: 9mph
Humidity: 85%   Direction: 50°NE
Pressure: 29.97"   Gusts: NA
Location:  39.8786°N, 74.8969°W
Report Text: KVAY 260554Z AUTO 05008KT 10SM FEW011 OVC023 M02/M04 A2997 RMK AO2 SNE31 SLP149 P0000 60000 T10171039 10039 21017 50012
Loading
Personal Weather Stations






























Interactive Weather Map New forecast layout! Learn more

10-Day Weather Forecast

Advertisements
Track Severe Weather on mobile